sensor_id;sensor_type;location;lat;lon;timestamp;P1;durP1;ratioP1;P2;durP2;ratioP2
75216;SDS011;63800;51.972;5.682;2022-11-15T00:01:44;36.20;;;15.95;;
75216;SDS011;63800;51.972;5.682;2022-11-15T00:04:09;45.35;;;18.23;;
75216;SDS011;63800;51.972;5.682;2022-11-15T00:06:35;48.28;;;18.42;;
75216;SDS011;63800;51.972;5.682;2022-11-15T00:09:01;41.15;;;16.65;;
75216;SDS011;63800;51.972;5.682;2022-11-15T00:11:27;43.03;;;17.35;;
75216;SDS011;63800;51.972;5.682;2022-11-15T00:13:56;41.85;;;17.25;;
75216;SDS011;63800;51.972;5.682;2022-11-15T00:16:22;38.92;;;16.17;;
75216;SDS011;63800;51.972;5.682;2022-11-15T00:18:48;37.53;;;16.42;;
75216;SDS011;63800;51.972;5.682;2022-11-15T00:21:14;40.85;;;16.60;;
75216;SDS011;63800;51.972;5.682;2022-11-15T00:23:40;42.30;;;18.50;;
75216;SDS011;63800;51.972;5.682;2022-11-15T00:26:05;36.95;;;16.52;;
75216;SDS011;63800;51.972;5.682;2022-11-15T00:28:31;36.00;;;15.85;;
75216;SDS011;63800;51.972;5.682;2022-11-15T00:31:01;33.95;;;15.82;;
75216;SDS011;63800;51.972;5.682;2022-11-15T00:33:27;38.88;;;16.83;;
75216;SDS011;63800;51.972;5.682;2022-11-15T00:35:52;38.88;;;17.88;;
75216;SDS011;63800;51.972;5.682;2022-11-15T00:38:18;39.10;;;16.05;;
75216;SDS011;63800;51.972;5.682;2022-11-15T00:40:43;38.88;;;16.10;;
75216;SDS011;63800;51.972;5.682;2022-11-15T00:43:09;35.95;;;16.38;;
75216;SDS011;63800;51.972;5.682;2022-11-15T00:45:34;36.17;;;16.27;;
75216;SDS011;63800;51.972;5.682;2022-11-15T00:47:59;38.35;;;15.73;;
75216;SDS011;63800;51.972;5.682;2022-11-15T00:50:25;41.03;;;17.27;;
75216;SDS011;63800;51.972;5.682;2022-11-15T00:52:50;32.88;;;15.43;;
75216;SDS011;63800;51.972;5.682;2022-11-15T00:55:16;36.90;;;16.02;;
75216;SDS011;63800;51.972;5.682;2022-11-15T00:57:42;36.00;;;15.40;;
75216;SDS011;63800;51.972;5.682;2022-11-15T01:00:08;36.33;;;15.82;;
75216;SDS011;63800;51.972;5.682;2022-11-15T01:02:34;34.13;;;15.27;;
75216;SDS011;63800;51.972;5.682;2022-11-15T01:05:00;33.67;;;15.30;;
75216;SDS011;63800;51.972;5.682;2022-11-15T01:07:25;34.58;;;14.75;;
75216;SDS011;63800;51.972;5.682;2022-11-15T01:09:50;33.38;;;15.70;;
75216;SDS011;63800;51.972;5.682;2022-11-15T01:12:16;35.30;;;15.38;;
75216;SDS011;63800;51.972;5.682;2022-11-15T01:14:41;28.13;;;14.77;;
75216;SDS011;63800;51.972;5.682;2022-11-15T01:17:07;33.63;;;15.93;;
75216;SDS011;63800;51.972;5.682;2022-11-15T01:19:32;34.33;;;14.77;;
75216;SDS011;63800;51.972;5.682;2022-11-15T01:21:58;29.90;;;14.63;;
75216;SDS011;63800;51.972;5.682;2022-11-15T01:24:23;32.20;;;14.70;;
75216;SDS011;63800;51.972;5.682;2022-11-15T01:26:49;28.35;;;14.85;;
75216;SDS011;63800;51.972;5.682;2022-11-15T01:29:14;41.80;;;15.75;;
75216;SDS011;63800;51.972;5.682;2022-11-15T01:31:39;31.60;;;14.43;;
75216;SDS011;63800;51.972;5.682;2022-11-15T01:34:05;33.25;;;16.05;;
75216;SDS011;63800;51.972;5.682;2022-11-15T01:36:30;30.55;;;14.57;;
75216;SDS011;63800;51.972;5.682;2022-11-15T01:38:56;33.13;;;15.73;;
75216;SDS011;63800;51.972;5.682;2022-11-15T01:41:24;29.77;;;13.70;;
75216;SDS011;63800;51.972;5.682;2022-11-15T01:47:02;30.20;;;15.07;;
75216;SDS011;63800;51.972;5.682;2022-11-15T01:49:32;31.25;;;15.32;;
75216;SDS011;63800;51.972;5.682;2022-11-15T01:52:00;30.65;;;15.18;;
75216;SDS011;63800;51.972;5.682;2022-11-15T01:54:28;33.25;;;14.25;;
75216;SDS011;63800;51.972;5.682;2022-11-15T01:56:56;29.58;;;14.57;;
75216;SDS011;63800;51.972;5.682;2022-11-15T01:59:31;30.90;;;14.95;;
75216;SDS011;63800;51.972;5.682;2022-11-15T02:01:57;30.05;;;14.48;;
75216;SDS011;63800;51.972;5.682;2022-11-15T02:04:30;29.83;;;14.77;;
75216;SDS011;63800;51.972;5.682;2022-11-15T02:06:57;29.70;;;15.15;;
75216;SDS011;63800;51.972;5.682;2022-11-15T02:09:23;32.25;;;14.57;;
75216;SDS011;63800;51.972;5.682;2022-11-15T02:11:49;25.33;;;13.32;;
75216;SDS011;63800;51.972;5.682;2022-11-15T02:14:16;28.60;;;13.70;;
75216;SDS011;63800;51.972;5.682;2022-11-15T02:20:05;27.35;;;14.55;;
75216;SDS011;63800;51.972;5.682;2022-11-15T02:22:51;26.70;;;14.13;;
75216;SDS011;63800;51.972;5.682;2022-11-15T02:36:34;26.95;;;14.27;;
75216;SDS011;63800;51.972;5.682;2022-11-15T02:41:54;26.90;;;14.05;;
75216;SDS011;63800;51.972;5.682;2022-11-15T02:44:30;28.63;;;14.48;;
75216;SDS011;63800;51.972;5.682;2022-11-15T02:47:04;23.90;;;13.00;;
75216;SDS011;63800;51.972;5.682;2022-11-15T02:49:51;24.27;;;13.75;;
75216;SDS011;63800;51.972;5.682;2022-11-15T02:52:19;23.65;;;13.48;;
75216;SDS011;63800;51.972;5.682;2022-11-15T02:54:53;25.98;;;13.50;;
75216;SDS011;63800;51.972;5.682;2022-11-15T02:57:36;24.88;;;14.15;;
75216;SDS011;63800;51.972;5.682;2022-11-15T03:00:18;23.38;;;13.70;;
75216;SDS011;63800;51.972;5.682;2022-11-15T03:08:19;22.40;;;12.30;;
75216;SDS011;63800;51.972;5.682;2022-11-15T03:11:10;24.42;;;13.35;;
75216;SDS011;63800;51.972;5.682;2022-11-15T03:16:34;23.25;;;13.13;;
75216;SDS011;63800;51.972;5.682;2022-11-15T03:21:52;25.38;;;13.60;;
75216;SDS011;63800;51.972;5.682;2022-11-15T03:24:18;25.73;;;14.68;;
75216;SDS011;63800;51.972;5.682;2022-11-15T03:26:46;24.05;;;13.00;;
75216;SDS011;63800;51.972;5.682;2022-11-15T03:29:18;22.83;;;13.70;;
75216;SDS011;63800;51.972;5.682;2022-11-15T03:31:49;27.30;;;14.57;;
75216;SDS011;63800;51.972;5.682;2022-11-15T03:36:47;25.95;;;13.75;;
75216;SDS011;63800;51.972;5.682;2022-11-15T03:39:15;24.88;;;14.48;;
75216;SDS011;63800;51.972;5.682;2022-11-15T03:44:50;23.05;;;13.25;;
75216;SDS011;63800;51.972;5.682;2022-11-15T03:47:30;26.20;;;14.80;;
75216;SDS011;63800;51.972;5.682;2022-11-15T03:50:06;34.15;;;16.95;;
75216;SDS011;63800;51.972;5.682;2022-11-15T03:52:35;30.15;;;16.77;;
75216;SDS011;63800;51.972;5.682;2022-11-15T03:55:02;32.58;;;16.83;;
75216;SDS011;63800;51.972;5.682;2022-11-15T03:57:29;31.10;;;16.10;;
75216;SDS011;63800;51.972;5.682;2022-11-15T03:59:54;34.05;;;16.42;;
75216;SDS011;63800;51.972;5.682;2022-11-15T04:02:20;32.80;;;18.65;;
75216;SDS011;63800;51.972;5.682;2022-11-15T04:04:45;34.00;;;18.60;;
75216;SDS011;63800;51.972;5.682;2022-11-15T04:07:11;39.78;;;20.33;;
75216;SDS011;63800;51.972;5.682;2022-11-15T04:09:36;34.00;;;18.35;;
75216;SDS011;63800;51.972;5.682;2022-11-15T04:12:20;35.30;;;17.92;;
75216;SDS011;63800;51.972;5.682;2022-11-15T04:15:07;33.60;;;17.35;;
75216;SDS011;63800;51.972;5.682;2022-11-15T04:17:39;29.67;;;17.23;;
75216;SDS011;63800;51.972;5.682;2022-11-15T04:20:08;32.25;;;16.63;;
75216;SDS011;63800;51.972;5.682;2022-11-15T04:22:57;32.60;;;16.55;;
75216;SDS011;63800;51.972;5.682;2022-11-15T04:25:42;32.20;;;16.98;;
75216;SDS011;63800;51.972;5.682;2022-11-15T04:28:08;34.28;;;17.67;;
75216;SDS011;63800;51.972;5.682;2022-11-15T04:30:34;30.00;;;16.80;;
75216;SDS011;63800;51.972;5.682;2022-11-15T04:33:00;32.20;;;17.13;;
75216;SDS011;63800;51.972;5.682;2022-11-15T04:35:25;28.77;;;14.82;;
75216;SDS011;63800;51.972;5.682;2022-11-15T04:37:51;28.13;;;15.77;;
75216;SDS011;63800;51.972;5.682;2022-11-15T04:40:16;30.08;;;15.65;;
75216;SDS011;63800;51.972;5.682;2022-11-15T04:42:42;32.97;;;16.38;;
75216;SDS011;63800;51.972;5.682;2022-11-15T04:45:07;29.60;;;15.65;;
75216;SDS011;63800;51.972;5.682;2022-11-15T04:47:33;31.70;;;17.70;;
75216;SDS011;63800;51.972;5.682;2022-11-15T04:49:59;28.20;;;16.42;;
75216;SDS011;63800;51.972;5.682;2022-11-15T04:52:24;33.88;;;17.58;;
75216;SDS011;63800;51.972;5.682;2022-11-15T04:54:50;30.35;;;16.20;;
75216;SDS011;63800;51.972;5.682;2022-11-15T04:57:15;29.25;;;16.05;;
75216;SDS011;63800;51.972;5.682;2022-11-15T04:59:41;30.48;;;16.63;;
75216;SDS011;63800;51.972;5.682;2022-11-15T05:02:06;32.13;;;17.30;;
75216;SDS011;63800;51.972;5.682;2022-11-15T05:04:31;32.03;;;17.25;;
75216;SDS011;63800;51.972;5.682;2022-11-15T05:06:57;32.28;;;16.75;;
75216;SDS011;63800;51.972;5.682;2022-11-15T05:09:22;28.45;;;15.70;;
75216;SDS011;63800;51.972;5.682;2022-11-15T05:11:48;33.08;;;16.85;;
75216;SDS011;63800;51.972;5.682;2022-11-15T05:14:13;30.75;;;16.17;;
75216;SDS011;63800;51.972;5.682;2022-11-15T05:16:39;28.95;;;15.68;;
75216;SDS011;63800;51.972;5.682;2022-11-15T05:19:05;26.00;;;16.33;;
75216;SDS011;63800;51.972;5.682;2022-11-15T05:21:31;33.95;;;18.15;;
75216;SDS011;63800;51.972;5.682;2022-11-15T05:23:57;35.33;;;17.20;;
75216;SDS011;63800;51.972;5.682;2022-11-15T05:26:22;30.23;;;16.85;;
75216;SDS011;63800;51.972;5.682;2022-11-15T05:28:51;28.88;;;15.15;;
75216;SDS011;63800;51.972;5.682;2022-11-15T05:31:19;33.78;;;17.17;;
75216;SDS011;63800;51.972;5.682;2022-11-15T05:33:44;35.05;;;18.48;;
75216;SDS011;63800;51.972;5.682;2022-11-15T05:36:27;31.42;;;16.77;;
75216;SDS011;63800;51.972;5.682;2022-11-15T05:38:56;34.97;;;16.95;;
75216;SDS011;63800;51.972;5.682;2022-11-15T05:41:25;37.08;;;19.13;;
75216;SDS011;63800;51.972;5.682;2022-11-15T05:43:55;39.97;;;19.05;;
75216;SDS011;63800;51.972;5.682;2022-11-15T05:46:20;40.13;;;19.83;;
75216;SDS011;63800;51.972;5.682;2022-11-15T05:48:46;37.65;;;18.63;;
75216;SDS011;63800;51.972;5.682;2022-11-15T05:51:15;30.70;;;15.82;;
75216;SDS011;63800;51.972;5.682;2022-11-15T05:53:43;34.28;;;18.55;;
75216;SDS011;63800;51.972;5.682;2022-11-15T05:56:09;37.30;;;16.38;;
75216;SDS011;63800;51.972;5.682;2022-11-15T05:58:35;37.75;;;16.88;;
75216;SDS011;63800;51.972;5.682;2022-11-15T06:01:02;34.42;;;18.30;;
75216;SDS011;63800;51.972;5.682;2022-11-15T06:03:27;38.45;;;18.10;;
75216;SDS011;63800;51.972;5.682;2022-11-15T06:05:53;34.58;;;18.17;;
75216;SDS011;63800;51.972;5.682;2022-11-15T06:08:18;39.42;;;19.60;;
75216;SDS011;63800;51.972;5.682;2022-11-15T06:10:44;38.15;;;18.95;;
75216;SDS011;63800;51.972;5.682;2022-11-15T06:13:09;35.17;;;17.63;;
75216;SDS011;63800;51.972;5.682;2022-11-15T06:15:35;32.95;;;17.13;;
75216;SDS011;63800;51.972;5.682;2022-11-15T06:18:00;33.92;;;17.48;;
75216;SDS011;63800;51.972;5.682;2022-11-15T06:20:26;31.95;;;16.20;;
75216;SDS011;63800;51.972;5.682;2022-11-15T06:22:56;32.90;;;16.65;;
75216;SDS011;63800;51.972;5.682;2022-11-15T06:25:23;30.42;;;15.90;;
75216;SDS011;63800;51.972;5.682;2022-11-15T06:27:52;35.70;;;17.13;;
75216;SDS011;63800;51.972;5.682;2022-11-15T06:30:18;26.90;;;15.07;;
75216;SDS011;63800;51.972;5.682;2022-11-15T06:32:44;29.42;;;15.73;;
75216;SDS011;63800;51.972;5.682;2022-11-15T06:35:10;27.73;;;14.70;;
75216;SDS011;63800;51.972;5.682;2022-11-15T06:37:35;28.20;;;16.00;;
75216;SDS011;63800;51.972;5.682;2022-11-15T06:40:00;26.80;;;14.48;;
75216;SDS011;63800;51.972;5.682;2022-11-15T06:42:26;28.10;;;15.05;;
75216;SDS011;63800;51.972;5.682;2022-11-15T06:44:51;30.70;;;15.35;;
75216;SDS011;63800;51.972;5.682;2022-11-15T06:47:17;34.83;;;17.10;;
75216;SDS011;63800;51.972;5.682;2022-11-15T06:49:42;28.85;;;15.85;;
75216;SDS011;63800;51.972;5.682;2022-11-15T06:52:08;34.88;;;17.27;;
75216;SDS011;63800;51.972;5.682;2022-11-15T06:54:33;32.50;;;17.15;;
75216;SDS011;63800;51.972;5.682;2022-11-15T06:56:58;30.90;;;16.17;;
75216;SDS011;63800;51.972;5.682;2022-11-15T06:59:24;33.97;;;17.00;;
75216;SDS011;63800;51.972;5.682;2022-11-15T07:01:49;34.88;;;17.90;;
75216;SDS011;63800;51.972;5.682;2022-11-15T07:04:15;32.88;;;17.48;;
75216;SDS011;63800;51.972;5.682;2022-11-15T07:06:40;33.35;;;17.25;;
75216;SDS011;63800;51.972;5.682;2022-11-15T07:09:05;33.97;;;18.13;;
75216;SDS011;63800;51.972;5.682;2022-11-15T07:11:32;37.05;;;18.20;;
75216;SDS011;63800;51.972;5.682;2022-11-15T07:13:58;33.83;;;17.17;;
75216;SDS011;63800;51.972;5.682;2022-11-15T07:16:24;31.65;;;17.15;;
75216;SDS011;63800;51.972;5.682;2022-11-15T07:18:50;33.22;;;16.65;;
75216;SDS011;63800;51.972;5.682;2022-11-15T07:21:15;30.80;;;16.52;;
75216;SDS011;63800;51.972;5.682;2022-11-15T07:23:41;31.02;;;16.25;;
75216;SDS011;63800;51.972;5.682;2022-11-15T07:26:06;32.78;;;15.88;;
75216;SDS011;63800;51.972;5.682;2022-11-15T07:28:33;31.55;;;17.15;;
75216;SDS011;63800;51.972;5.682;2022-11-15T07:31:01;29.85;;;16.48;;
75216;SDS011;63800;51.972;5.682;2022-11-15T07:33:31;25.10;;;14.93;;
75216;SDS011;63800;51.972;5.682;2022-11-15T07:36:03;28.23;;;15.18;;
75216;SDS011;63800;51.972;5.682;2022-11-15T07:38:30;28.65;;;16.35;;
75216;SDS011;63800;51.972;5.682;2022-11-15T07:41:00;26.67;;;14.73;;
75216;SDS011;63800;51.972;5.682;2022-11-15T07:43:27;29.95;;;15.18;;
75216;SDS011;63800;51.972;5.682;2022-11-15T07:45:53;28.48;;;15.27;;
75216;SDS011;63800;51.972;5.682;2022-11-15T07:48:18;31.90;;;15.82;;
75216;SDS011;63800;51.972;5.682;2022-11-15T07:50:44;32.45;;;16.20;;
75216;SDS011;63800;51.972;5.682;2022-11-15T07:53:09;33.95;;;17.95;;
75216;SDS011;63800;51.972;5.682;2022-11-15T07:55:35;30.15;;;15.80;;
75216;SDS011;63800;51.972;5.682;2022-11-15T07:58:01;30.73;;;16.75;;
75216;SDS011;63800;51.972;5.682;2022-11-15T08:00:31;33.00;;;16.38;;
75216;SDS011;63800;51.972;5.682;2022-11-15T08:03:01;32.53;;;17.10;;
75216;SDS011;63800;51.972;5.682;2022-11-15T08:05:30;33.30;;;17.77;;
75216;SDS011;63800;51.972;5.682;2022-11-15T08:07:56;34.38;;;17.83;;
75216;SDS011;63800;51.972;5.682;2022-11-15T08:10:21;34.90;;;16.80;;
75216;SDS011;63800;51.972;5.682;2022-11-15T08:12:47;32.00;;;15.85;;
75216;SDS011;63800;51.972;5.682;2022-11-15T08:15:12;31.17;;;16.52;;
75216;SDS011;63800;51.972;5.682;2022-11-15T08:17:38;26.67;;;14.07;;
75216;SDS011;63800;51.972;5.682;2022-11-15T08:20:03;24.60;;;14.60;;
75216;SDS011;63800;51.972;5.682;2022-11-15T08:22:29;26.88;;;15.15;;
75216;SDS011;63800;51.972;5.682;2022-11-15T08:24:55;26.83;;;14.80;;
75216;SDS011;63800;51.972;5.682;2022-11-15T08:27:20;26.48;;;13.50;;
75216;SDS011;63800;51.972;5.682;2022-11-15T08:29:47;25.25;;;14.35;;
75216;SDS011;63800;51.972;5.682;2022-11-15T08:32:13;26.65;;;14.45;;
75216;SDS011;63800;51.972;5.682;2022-11-15T08:34:39;27.05;;;14.52;;
75216;SDS011;63800;51.972;5.682;2022-11-15T08:37:04;24.15;;;13.30;;
75216;SDS011;63800;51.972;5.682;2022-11-15T08:39:30;24.10;;;13.98;;
75216;SDS011;63800;51.972;5.682;2022-11-15T08:41:55;24.35;;;13.50;;
75216;SDS011;63800;51.972;5.682;2022-11-15T08:44:21;28.10;;;14.45;;
75216;SDS011;63800;51.972;5.682;2022-11-15T08:46:46;27.13;;;14.38;;
75216;SDS011;63800;51.972;5.682;2022-11-15T08:49:12;28.27;;;14.98;;
75216;SDS011;63800;51.972;5.682;2022-11-15T08:51:37;30.13;;;14.63;;
75216;SDS011;63800;51.972;5.682;2022-11-15T08:54:02;26.33;;;14.32;;
75216;SDS011;63800;51.972;5.682;2022-11-15T08:56:28;28.58;;;15.70;;
75216;SDS011;63800;51.972;5.682;2022-11-15T08:58:53;23.75;;;13.13;;
75216;SDS011;63800;51.972;5.682;2022-11-15T09:01:19;26.83;;;14.57;;
75216;SDS011;63800;51.972;5.682;2022-11-15T09:03:46;26.73;;;14.43;;
75216;SDS011;63800;51.972;5.682;2022-11-15T09:06:11;26.30;;;14.18;;
75216;SDS011;63800;51.972;5.682;2022-11-15T09:08:37;26.17;;;14.20;;
75216;SDS011;63800;51.972;5.682;2022-11-15T09:11:03;25.17;;;13.48;;
75216;SDS011;63800;51.972;5.682;2022-11-15T09:13:30;26.80;;;14.23;;
75216;SDS011;63800;51.972;5.682;2022-11-15T09:15:59;23.05;;;12.95;;
75216;SDS011;63800;51.972;5.682;2022-11-15T09:18:25;21.83;;;13.02;;
75216;SDS011;63800;51.972;5.682;2022-11-15T09:20:51;23.50;;;12.20;;
75216;SDS011;63800;51.972;5.682;2022-11-15T09:23:19;20.75;;;11.95;;
75216;SDS011;63800;51.972;5.682;2022-11-15T09:25:45;25.95;;;13.13;;
75216;SDS011;63800;51.972;5.682;2022-11-15T09:28:10;19.13;;;11.48;;
75216;SDS011;63800;51.972;5.682;2022-11-15T09:30:35;19.92;;;10.50;;
75216;SDS011;63800;51.972;5.682;2022-11-15T09:33:10;17.75;;;10.57;;
75216;SDS011;63800;51.972;5.682;2022-11-15T09:35:37;18.38;;;11.02;;
75216;SDS011;63800;51.972;5.682;2022-11-15T09:38:03;19.77;;;9.85;;
75216;SDS011;63800;51.972;5.682;2022-11-15T09:40:29;16.30;;;9.38;;
75216;SDS011;63800;51.972;5.682;2022-11-15T09:43:24;16.60;;;9.35;;
75216;SDS011;63800;51.972;5.682;2022-11-15T09:49:06;15.60;;;9.20;;
75216;SDS011;63800;51.972;5.682;2022-11-15T09:51:37;15.05;;;9.25;;
75216;SDS011;63800;51.972;5.682;2022-11-15T09:57:05;16.67;;;9.32;;
75216;SDS011;63800;51.972;5.682;2022-11-15T10:04:33;13.48;;;8.23;;
75216;SDS011;63800;51.972;5.682;2022-11-15T10:07:05;12.90;;;7.53;;
75216;SDS011;63800;51.972;5.682;2022-11-15T10:09:47;11.55;;;7.35;;
75216;SDS011;63800;51.972;5.682;2022-11-15T10:12:20;11.93;;;6.97;;
75216;SDS011;63800;51.972;5.682;2022-11-15T10:14:45;11.40;;;6.50;;
75216;SDS011;63800;51.972;5.682;2022-11-15T10:17:18;11.10;;;6.93;;
75216;SDS011;63800;51.972;5.682;2022-11-15T10:22:40;13.55;;;6.40;;
75216;SDS011;63800;51.972;5.682;2022-11-15T10:27:41;8.65;;;5.88;;
75216;SDS011;63800;51.972;5.682;2022-11-15T10:30:12;9.88;;;5.95;;
75216;SDS011;63800;51.972;5.682;2022-11-15T10:32:40;8.82;;;5.35;;
75216;SDS011;63800;51.972;5.682;2022-11-15T10:35:26;7.10;;;5.18;;
75216;SDS011;63800;51.972;5.682;2022-11-15T10:38:07;6.40;;;5.13;;
75216;SDS011;63800;51.972;5.682;2022-11-15T10:40:34;6.78;;;5.35;;
75216;SDS011;63800;51.972;5.682;2022-11-15T10:43:12;8.50;;;5.15;;
75216;SDS011;63800;51.972;5.682;2022-11-15T10:45:40;6.72;;;4.85;;
75216;SDS011;63800;51.972;5.682;2022-11-15T10:48:19;5.72;;;4.50;;
75216;SDS011;63800;51.972;5.682;2022-11-15T10:50:47;6.32;;;4.40;;
75216;SDS011;63800;51.972;5.682;2022-11-15T10:53:25;13.93;;;4.80;;
75216;SDS011;63800;51.972;5.682;2022-11-15T10:55:52;5.75;;;4.45;;
75216;SDS011;63800;51.972;5.682;2022-11-15T10:58:35;7.60;;;4.30;;
75216;SDS011;63800;51.972;5.682;2022-11-15T11:01:11;6.50;;;4.53;;
75216;SDS011;63800;51.972;5.682;2022-11-15T11:04:06;5.97;;;3.80;;
75216;SDS011;63800;51.972;5.682;2022-11-15T11:06:49;5.63;;;3.60;;
75216;SDS011;63800;51.972;5.682;2022-11-15T11:09:30;5.80;;;3.20;;
75216;SDS011;63800;51.972;5.682;2022-11-15T11:11:58;3.38;;;3.08;;
75216;SDS011;63800;51.972;5.682;2022-11-15T11:14:25;6.43;;;3.58;;
75216;SDS011;63800;51.972;5.682;2022-11-15T11:22:22;3.67;;;2.78;;
75216;SDS011;63800;51.972;5.682;2022-11-15T11:25:15;5.43;;;2.92;;
75216;SDS011;63800;51.972;5.682;2022-11-15T11:30:47;4.97;;;2.97;;
75216;SDS011;63800;51.972;5.682;2022-11-15T11:33:32;3.55;;;2.33;;
75216;SDS011;63800;51.972;5.682;2022-11-15T11:44:32;4.38;;;2.60;;
75216;SDS011;63800;51.972;5.682;2022-11-15T11:47:11;3.90;;;2.10;;
75216;SDS011;63800;51.972;5.682;2022-11-15T11:49:50;5.15;;;2.50;;
75216;SDS011;63800;51.972;5.682;2022-11-15T11:52:19;3.58;;;2.10;;
75216;SDS011;63800;51.972;5.682;2022-11-15T12:02:29;3.45;;;1.80;;
75216;SDS011;63800;51.972;5.682;2022-11-15T12:05:08;5.03;;;2.50;;
75216;SDS011;63800;51.972;5.682;2022-11-15T12:07:39;2.70;;;2.17;;
75216;SDS011;63800;51.972;5.682;2022-11-15T12:15:30;4.57;;;1.92;;
75216;SDS011;63800;51.972;5.682;2022-11-15T12:18:00;6.30;;;2.38;;
75216;SDS011;63800;51.972;5.682;2022-11-15T12:20:27;2.42;;;1.58;;
75216;SDS011;63800;51.972;5.682;2022-11-15T12:22:59;3.60;;;1.85;;
75216;SDS011;63800;51.972;5.682;2022-11-15T12:25:30;4.05;;;2.20;;
75216;SDS011;63800;51.972;5.682;2022-11-15T12:30:45;2.63;;;1.63;;
75216;SDS011;63800;51.972;5.682;2022-11-15T12:33:31;4.20;;;2.05;;
75216;SDS011;63800;51.972;5.682;2022-11-15T12:36:29;6.15;;;2.10;;
75216;SDS011;63800;51.972;5.682;2022-11-15T12:41:20;4.38;;;1.83;;
75216;SDS011;63800;51.972;5.682;2022-11-15T12:43:50;5.75;;;1.80;;
75216;SDS011;63800;51.972;5.682;2022-11-15T12:46:20;2.17;;;1.70;;
75216;SDS011;63800;51.972;5.682;2022-11-15T12:48:59;5.47;;;2.13;;
75216;SDS011;63800;51.972;5.682;2022-11-15T12:59:48;2.65;;;1.60;;
75216;SDS011;63800;51.972;5.682;2022-11-15T13:02:18;2.28;;;1.33;;
75216;SDS011;63800;51.972;5.682;2022-11-15T13:04:55;5.63;;;1.55;;
75216;SDS011;63800;51.972;5.682;2022-11-15T13:12:56;3.95;;;1.23;;
75216;SDS011;63800;51.972;5.682;2022-11-15T13:17:55;2.08;;;1.30;;
75216;SDS011;63800;51.972;5.682;2022-11-15T13:20:25;4.10;;;1.60;;
75216;SDS011;63800;51.972;5.682;2022-11-15T13:23:00;3.95;;;1.65;;
75216;SDS011;63800;51.972;5.682;2022-11-15T13:31:28;6.82;;;2.20;;
75216;SDS011;63800;51.972;5.682;2022-11-15T13:33:46;4.05;;;1.77;;
75216;SDS011;63800;51.972;5.682;2022-11-15T13:36:16;4.22;;;1.55;;
75216;SDS011;63800;51.972;5.682;2022-11-15T13:38:53;3.17;;;1.40;;
75216;SDS011;63800;51.972;5.682;2022-11-15T13:41:30;4.18;;;1.45;;
75216;SDS011;63800;51.972;5.682;2022-11-15T13:44:00;2.95;;;1.42;;
75216;SDS011;63800;51.972;5.682;2022-11-15T13:48:59;4.32;;;1.80;;
75216;SDS011;63800;51.972;5.682;2022-11-15T13:54:00;4.47;;;1.70;;
75216;SDS011;63800;51.972;5.682;2022-11-15T13:56:37;3.80;;;1.65;;
75216;SDS011;63800;51.972;5.682;2022-11-15T13:59:15;4.63;;;1.60;;
75216;SDS011;63800;51.972;5.682;2022-11-15T14:01:49;5.35;;;1.55;;
75216;SDS011;63800;51.972;5.682;2022-11-15T14:04:17;4.47;;;1.95;;
75216;SDS011;63800;51.972;5.682;2022-11-15T14:06:45;3.50;;;1.60;;
75216;SDS011;63800;51.972;5.682;2022-11-15T14:09:29;2.38;;;1.50;;
75216;SDS011;63800;51.972;5.682;2022-11-15T14:11:56;3.15;;;1.73;;
75216;SDS011;63800;51.972;5.682;2022-11-15T14:14:22;2.53;;;1.73;;
75216;SDS011;63800;51.972;5.682;2022-11-15T14:16:53;2.10;;;1.63;;
75216;SDS011;63800;51.972;5.682;2022-11-15T14:28:30;2.72;;;1.50;;
75216;SDS011;63800;51.972;5.682;2022-11-15T14:30:34;4.22;;;1.85;;
75216;SDS011;63800;51.972;5.682;2022-11-15T14:33:00;2.00;;;1.30;;
75216;SDS011;63800;51.972;5.682;2022-11-15T14:35:25;3.15;;;1.40;;
75216;SDS011;63800;51.972;5.682;2022-11-15T14:37:51;6.63;;;1.98;;
75216;SDS011;63800;51.972;5.682;2022-11-15T14:40:18;3.13;;;1.50;;
75216;SDS011;63800;51.972;5.682;2022-11-15T14:42:45;6.50;;;1.65;;
75216;SDS011;63800;51.972;5.682;2022-11-15T14:45:12;4.00;;;1.58;;
75216;SDS011;63800;51.972;5.682;2022-11-15T14:47:42;2.17;;;1.40;;
75216;SDS011;63800;51.972;5.682;2022-11-15T14:50:15;3.00;;;1.40;;
75216;SDS011;63800;51.972;5.682;2022-11-15T14:52:42;3.75;;;1.20;;
75216;SDS011;63800;51.972;5.682;2022-11-15T14:55:22;3.63;;;1.45;;
75216;SDS011;63800;51.972;5.682;2022-11-15T14:57:49;2.35;;;1.20;;
75216;SDS011;63800;51.972;5.682;2022-11-15T15:00:15;3.38;;;1.58;;
75216;SDS011;63800;51.972;5.682;2022-11-15T15:02:42;2.80;;;1.35;;
75216;SDS011;63800;51.972;5.682;2022-11-15T15:05:29;7.00;;;1.60;;
75216;SDS011;63800;51.972;5.682;2022-11-15T15:07:57;1.42;;;1.02;;
75216;SDS011;63800;51.972;5.682;2022-11-15T15:10:23;5.32;;;1.70;;
75216;SDS011;63800;51.972;5.682;2022-11-15T15:12:50;2.00;;;1.30;;
75216;SDS011;63800;51.972;5.682;2022-11-15T15:15:25;2.60;;;1.60;;
75216;SDS011;63800;51.972;5.682;2022-11-15T15:17:56;5.20;;;1.60;;
75216;SDS011;63800;51.972;5.682;2022-11-15T15:20:21;3.22;;;1.55;;
75216;SDS011;63800;51.972;5.682;2022-11-15T15:22:46;3.33;;;1.48;;
75216;SDS011;63800;51.972;5.682;2022-11-15T15:25:27;4.68;;;1.80;;
75216;SDS011;63800;51.972;5.682;2022-11-15T15:27:55;2.72;;;1.50;;
75216;SDS011;63800;51.972;5.682;2022-11-15T15:30:21;2.25;;;1.48;;
75216;SDS011;63800;51.972;5.682;2022-11-15T15:32:47;3.78;;;1.52;;
75216;SDS011;63800;51.972;5.682;2022-11-15T15:35:13;4.72;;;1.60;;
75216;SDS011;63800;51.972;5.682;2022-11-15T15:37:40;4.68;;;1.48;;
75216;SDS011;63800;51.972;5.682;2022-11-15T15:40:10;2.47;;;1.50;;
75216;SDS011;63800;51.972;5.682;2022-11-15T15:42:42;3.53;;;1.50;;
75216;SDS011;63800;51.972;5.682;2022-11-15T15:45:08;2.25;;;1.35;;
75216;SDS011;63800;51.972;5.682;2022-11-15T15:47:34;2.20;;;1.30;;
75216;SDS011;63800;51.972;5.682;2022-11-15T15:49:59;3.78;;;1.83;;
75216;SDS011;63800;51.972;5.682;2022-11-15T15:52:25;3.88;;;1.42;;
75216;SDS011;63800;51.972;5.682;2022-11-15T15:54:51;3.17;;;1.40;;
75216;SDS011;63800;51.972;5.682;2022-11-15T15:57:16;1.45;;;1.35;;
75216;SDS011;63800;51.972;5.682;2022-11-15T15:59:41;2.67;;;1.30;;
75216;SDS011;63800;51.972;5.682;2022-11-15T16:02:11;2.20;;;1.45;;
75216;SDS011;63800;51.972;5.682;2022-11-15T16:04:37;3.53;;;1.55;;
75216;SDS011;63800;51.972;5.682;2022-11-15T16:07:03;2.58;;;1.45;;
75216;SDS011;63800;51.972;5.682;2022-11-15T16:09:29;4.50;;;1.77;;
75216;SDS011;63800;51.972;5.682;2022-11-15T16:12:13;5.85;;;1.50;;
75216;SDS011;63800;51.972;5.682;2022-11-15T16:14:41;4.22;;;1.65;;
75216;SDS011;63800;51.972;5.682;2022-11-15T16:17:08;3.63;;;1.42;;
75216;SDS011;63800;51.972;5.682;2022-11-15T16:19:41;3.95;;;1.40;;
75216;SDS011;63800;51.972;5.682;2022-11-15T16:22:07;6.97;;;1.65;;
75216;SDS011;63800;51.972;5.682;2022-11-15T16:24:32;4.63;;;1.80;;
75216;SDS011;63800;51.972;5.682;2022-11-15T16:26:57;3.30;;;1.70;;
75216;SDS011;63800;51.972;5.682;2022-11-15T16:29:23;5.10;;;2.03;;
75216;SDS011;63800;51.972;5.682;2022-11-15T16:31:48;3.35;;;1.63;;
75216;SDS011;63800;51.972;5.682;2022-11-15T16:34:14;4.22;;;2.00;;
75216;SDS011;63800;51.972;5.682;2022-11-15T16:36:39;3.00;;;1.60;;
75216;SDS011;63800;51.972;5.682;2022-11-15T16:39:05;3.47;;;2.03;;
75216;SDS011;63800;51.972;5.682;2022-11-15T16:41:30;3.78;;;1.70;;
75216;SDS011;63800;51.972;5.682;2022-11-15T16:43:56;3.92;;;2.40;;
75216;SDS011;63800;51.972;5.682;2022-11-15T16:46:22;4.13;;;1.98;;